createdAt,value
2019-06-20T00:00:36.156Z,95392.52
2019-06-20T00:03:02.913Z,95397.61
2019-06-20T00:05:29.285Z,95393.78
2019-06-20T00:07:55.545Z,95401.55
2019-06-20T00:10:21.893Z,95398.28
2019-06-20T00:13:00.046Z,95390.47
2019-06-20T00:15:16.383Z,95386.41
2019-06-20T00:17:42.517Z,95391.79
2019-06-20T00:20:08.997Z,95383.97
2019-06-20T00:22:35.090Z,95388.28
2019-06-20T00:25:02.964Z,95385.05
2019-06-20T00:27:30.480Z,95382.36
2019-06-20T00:29:56.660Z,95389.84
2019-06-20T00:32:22.816Z,95399.23
2019-06-20T00:34:49.077Z,95389.84
2019-06-20T00:37:15.355Z,95398.98
2019-06-20T00:39:42.688Z,95394.91
2019-06-20T00:42:08.929Z,95392.21
2019-06-20T00:44:35.132Z,95393.03
2019-06-20T00:47:01.257Z,95391.96
2019-06-20T00:49:27.577Z,95386.58
2019-06-20T00:51:53.674Z,95388.73
2019-06-20T00:54:19.811Z,95394.66
2019-06-20T00:56:45.967Z,95400.61
2019-06-20T00:59:12.075Z,95396.05
2019-06-20T01:01:38.257Z,95393.36
2019-06-20T01:04:04.514Z,95395.80
2019-06-20T01:06:30.787Z,95389.64
2019-06-20T01:08:56.929Z,95392.91
2019-06-20T01:11:23.078Z,95386.41
2019-06-20T01:13:52.607Z,95395.80
2019-06-20T01:16:17.369Z,95395.23
2019-06-20T01:18:43.574Z,95394.41
2019-06-20T01:21:10.363Z,95384.77
2019-06-20T01:23:36.545Z,95389.89
2019-06-20T01:26:02.769Z,95387.20
2019-06-20T01:28:28.953Z,95388.34
2019-06-20T01:30:55.111Z,95379.70
2019-06-20T01:33:21.308Z,95391.79
2019-06-20T01:35:47.426Z,95386.16
2019-06-20T01:38:13.644Z,95395.27
2019-06-20T01:40:39.751Z,95394.23
2019-06-20T01:43:05.991Z,95391.83
2019-06-20T01:45:32.421Z,95393.73
2019-06-20T01:47:58.542Z,95376.77
2019-06-20T01:50:24.961Z,95382.97
2019-06-20T01:52:51.061Z,95378.59
2019-06-20T01:55:17.321Z,95379.09
2019-06-20T01:57:43.486Z,95381.20
2019-06-20T02:00:10.638Z,95386.29
2019-06-20T02:02:36.730Z,95387.41
2019-06-20T02:05:05.288Z,95387.98
2019-06-20T02:07:31.511Z,95389.52
2019-06-20T02:09:57.749Z,95385.22
2019-06-20T02:12:24.136Z,95388.73
2019-06-20T02:14:50.416Z,95382.52
2019-06-20T02:17:16.832Z,95386.29
2019-06-20T02:19:42.936Z,95386.04
2019-06-20T02:22:09.131Z,95387.98
2019-06-20T02:24:35.392Z,95381.03
2019-06-20T02:27:01.642Z,95379.70
2019-06-20T02:29:27.963Z,95385.09
2019-06-20T02:31:54.178Z,95381.32
2019-06-20T02:34:20.477Z,95377.59
2019-06-20T02:36:46.723Z,95382.15
2019-06-20T02:39:12.885Z,95381.90
2019-06-20T02:41:39.359Z,95387.84
2019-06-20T02:44:05.679Z,95394.84
2019-06-20T02:46:31.988Z,95396.79
2019-06-20T02:48:58.386Z,95413.26
2019-06-20T02:51:25.300Z,95408.17
2019-06-20T02:53:51.686Z,95409.81
2019-06-20T02:56:18.045Z,95409.81
2019-06-20T02:58:44.199Z,95408.17
2019-06-20T03:01:10.693Z,95408.99
2019-06-20T03:03:36.894Z,95420.58
2019-06-20T03:06:03.394Z,95415.98
2019-06-20T03:08:29.798Z,95411.11
2019-06-20T03:10:56.014Z,95421.33
2019-06-20T03:13:22.303Z,95422.37
2019-06-20T03:15:50.110Z,95429.65
2019-06-20T03:18:20.967Z,95426.13
2019-06-20T03:20:48.679Z,95423.45
2019-06-20T03:23:14.998Z,95432.34
2019-06-20T03:25:41.375Z,95442.03
2019-06-20T03:28:07.778Z,95467.61
2019-06-20T03:30:34.003Z,95473.57
2019-06-20T03:33:00.464Z,95482.22
2019-06-20T03:35:27.043Z,95488.09
2019-06-20T03:38:02.141Z,95499.36
2019-06-20T03:40:28.395Z,95517.12
2019-06-20T03:42:54.599Z,95541.09
2019-06-20T03:45:20.719Z,95552.98
2019-06-20T03:47:46.923Z,95555.91
2019-06-20T03:50:13.238Z,95579.00
2019-06-20T03:52:39.582Z,95592.31
2019-06-20T03:55:05.895Z,95595.89
2019-06-20T03:57:32.316Z,95588.48
2019-06-20T03:59:58.458Z,95598.56
2019-06-20T04:02:24.789Z,95589.02
2019-06-20T04:04:51.034Z,95598.64
2019-06-20T04:07:17.265Z,95611.75
2019-06-20T04:09:43.462Z,95627.80
2019-06-20T04:12:09.583Z,95628.73
2019-06-20T04:14:35.812Z,95639.38
2019-06-20T04:17:01.967Z,95649.06
2019-06-20T04:19:28.443Z,95652.71
2019-06-20T04:21:54.655Z,95651.81
2019-06-20T04:24:20.859Z,95676.47
2019-06-20T04:26:47.082Z,95675.56
2019-06-20T04:29:14.519Z,95678.38
2019-06-20T04:31:40.623Z,95679.91
2019-06-20T04:34:06.842Z,95694.64
2019-06-20T04:36:32.951Z,95698.36
2019-06-20T04:38:59.126Z,95700.48
2019-06-20T04:41:25.311Z,95704.44
2019-06-20T04:43:51.456Z,95708.19
2019-06-20T04:46:19.465Z,95705.73
2019-06-20T04:48:45.665Z,95697.45
2019-06-20T04:51:11.770Z,95695.23
2019-06-20T04:53:37.968Z,95702.94
2019-06-20T04:56:05.763Z,95694.41
2019-06-20T04:58:32.167Z,95699.55
2019-06-20T05:00:58.300Z,95706.89
2019-06-20T05:03:24.462Z,95692.52
2019-06-20T05:05:50.677Z,95687.93
2019-06-20T05:08:16.776Z,95682.08
2019-06-20T05:10:43.102Z,95688.05
2019-06-20T05:13:09.195Z,95677.38
2019-06-20T05:15:51.105Z,95679.46
2019-06-20T05:18:03.574Z,95678.74
2019-06-20T05:20:29.878Z,95673.74
2019-06-20T05:22:56.026Z,95672.20
2019-06-20T05:25:22.253Z,95659.89
2019-06-20T05:27:48.504Z,95656.97
2019-06-20T05:30:15.163Z,95651.59
2019-06-20T05:32:41.306Z,95638.39
2019-06-20T05:35:08.175Z,95635.46
2019-06-20T05:37:34.288Z,95641.66
2019-06-20T05:40:00.610Z,95639.45
2019-06-20T05:42:26.864Z,95635.04
2019-06-20T05:44:53.024Z,95625.46
2019-06-20T05:47:19.228Z,95627.14
2019-06-20T05:49:45.460Z,95640.63
2019-06-20T05:52:11.709Z,95622.23
2019-06-20T05:54:37.962Z,95609.31
2019-06-20T05:57:04.740Z,95618.80
2019-06-20T05:59:31.081Z,95624.63
2019-06-20T06:01:57.235Z,95644.02
2019-06-20T06:04:23.439Z,95623.00
2019-06-20T06:06:49.554Z,95618.08
2019-06-20T06:09:15.808Z,95629.28
2019-06-20T06:11:42.204Z,95636.87
2019-06-20T06:14:08.493Z,95628.25
2019-06-20T06:16:34.668Z,95619.03
2019-06-20T06:19:01.109Z,95630.00
2019-06-20T06:21:27.409Z,95621.59
2019-06-20T06:23:53.677Z,95617.29
2019-06-20T06:26:20.201Z,95612.01
2019-06-20T06:28:46.545Z,95607.81
2019-06-20T06:31:13.105Z,95607.23
2019-06-20T06:33:40.599Z,95612.13
2019-06-20T06:36:06.814Z,95613.63
2019-06-20T06:38:33.113Z,95609.99
2019-06-20T06:40:59.724Z,95609.99
2019-06-20T06:43:26.136Z,95604.27
2019-06-20T06:45:52.385Z,95607.30
2019-06-20T06:48:18.653Z,95611.97
2019-06-20T06:50:44.878Z,95618.95
2019-06-20T06:53:11.367Z,95621.64
2019-06-20T06:55:37.744Z,95620.69
2019-06-20T06:58:04.707Z,95617.75
2019-06-20T07:00:30.807Z,95609.16
2019-06-20T07:02:57.101Z,95619.27
2019-06-20T07:05:24.558Z,95615.43
2019-06-20T07:07:51.304Z,95605.34
2019-06-20T07:10:17.735Z,95592.38
2019-06-20T07:12:43.950Z,95596.05
2019-06-20T07:15:14.158Z,95599.30
2019-06-20T07:17:40.351Z,95598.56
2019-06-20T07:20:07.366Z,95599.97
2019-06-20T07:22:34.552Z,95605.11
2019-06-20T07:25:00.916Z,95601.84
2019-06-20T07:27:27.432Z,95591.81
2019-06-20T07:29:53.748Z,95603.39
2019-06-20T07:32:19.997Z,95608.11
2019-06-20T07:34:47.834Z,95613.67
2019-06-20T07:37:14.033Z,95614.81
2019-06-20T07:39:40.187Z,95613.34
2019-06-20T07:42:06.980Z,95615.05
2019-06-20T07:44:33.132Z,95617.26
2019-06-20T07:46:59.349Z,95625.63
2019-06-20T07:49:25.513Z,95623.28
2019-06-20T07:51:51.672Z,95634.68
2019-06-20T07:54:17.873Z,95641.14
2019-06-20T07:56:44.047Z,95644.22
2019-06-20T07:59:10.717Z,95648.38
2019-06-20T08:01:37.006Z,95640.80
2019-06-20T08:04:03.414Z,95636.98
2019-06-20T08:06:29.606Z,95640.89
2019-06-20T08:08:55.778Z,95656.37
2019-06-20T08:11:22.383Z,95644.55
2019-06-20T08:13:48.586Z,95648.23
2019-06-20T08:16:15.056Z,95645.39
2019-06-20T08:18:41.384Z,95651.75
2019-06-20T08:21:07.787Z,95650.03
2019-06-20T08:23:34.751Z,95656.97
2019-06-20T08:26:00.879Z,95655.25
2019-06-20T08:28:27.184Z,95662.67
2019-06-20T08:30:54.145Z,95653.73
2019-06-20T08:33:20.652Z,95653.36
2019-06-20T08:35:46.960Z,95647.30
2019-06-20T08:38:13.380Z,95654.13
2019-06-20T08:40:39.731Z,95654.27
2019-06-20T08:43:06.397Z,95657.58
2019-06-20T08:45:33.869Z,95647.98
2019-06-20T08:48:00.210Z,95656.75
2019-06-20T08:50:26.751Z,95659.76
2019-06-20T08:52:52.906Z,95659.60
2019-06-20T08:55:19.276Z,95656.20
2019-06-20T08:57:45.688Z,95656.03
2019-06-20T09:00:14.290Z,95657.28
2019-06-20T09:02:40.575Z,95651.14
2019-06-20T09:05:07.674Z,95654.20
2019-06-20T09:07:34.288Z,95664.03
2019-06-20T09:10:01.846Z,95665.77
2019-06-20T09:12:28.338Z,95661.02
2019-06-20T09:14:55.152Z,95654.13
2019-06-20T09:17:21.442Z,95663.66
2019-06-20T09:19:47.537Z,95661.25
2019-06-20T09:22:13.760Z,95662.11
2019-06-20T09:24:39.835Z,95666.45
2019-06-20T09:27:06.046Z,95658.64
2019-06-20T09:29:41.388Z,95674.39
2019-06-20T09:32:00.467Z,95675.74
2019-06-20T09:34:26.630Z,95680.91
2019-06-20T09:36:55.123Z,95674.43
2019-06-20T09:39:21.532Z,95672.83
2019-06-20T09:41:48.251Z,95683.69
2019-06-20T09:44:14.363Z,95687.19
2019-06-20T09:46:40.564Z,95690.74
2019-06-20T09:49:06.798Z,95691.03
2019-06-20T09:51:33.100Z,95694.30
2019-06-20T09:53:59.210Z,95686.98
2019-06-20T09:56:25.423Z,95689.38
2019-06-20T09:58:51.530Z,95699.66
2019-06-20T10:01:17.740Z,95696.96
2019-06-20T10:03:44.393Z,95696.96
2019-06-20T10:06:13.973Z,95706.14
2019-06-20T10:08:38.790Z,95709.66
2019-06-20T10:11:05.988Z,95709.12
2019-06-20T10:13:32.929Z,95715.06
2019-06-20T10:15:59.358Z,95706.95
2019-06-20T10:18:25.572Z,95713.93
2019-06-20T10:20:53.025Z,95724.48
2019-06-20T10:23:19.351Z,95718.57
2019-06-20T10:25:46.672Z,95718.61
2019-06-20T10:28:13.563Z,95719.70
2019-06-20T10:30:39.735Z,95717.80
2019-06-20T10:33:06.094Z,95719.70
2019-06-20T10:35:32.556Z,95717.86
2019-06-20T10:37:58.731Z,95708.64
2019-06-20T10:40:26.318Z,95718.14
2019-06-20T10:42:52.948Z,95714.89
2019-06-20T10:45:21.798Z,95710.81
2019-06-20T10:47:49.034Z,95715.69
2019-06-20T10:50:15.873Z,95717.83
2019-06-20T10:52:43.396Z,95717.84
2019-06-20T10:55:10.297Z,95719.73
2019-06-20T10:57:36.762Z,95713.48
2019-06-20T11:00:09.818Z,95714.31
2019-06-20T11:02:36.081Z,95710.80
2019-06-20T11:05:04.872Z,95721.64
2019-06-20T11:07:31.144Z,95712.15
2019-06-20T11:09:57.321Z,95716.20
2019-06-20T11:12:23.533Z,95716.47
2019-06-20T11:14:49.706Z,95716.71
2019-06-20T11:17:16.171Z,95720.38
2019-06-20T11:19:43.775Z,95717.34
2019-06-20T11:22:10.059Z,95715.52
2019-06-20T11:24:38.876Z,95710.84
2019-06-20T11:27:04.403Z,95715.88
2019-06-20T11:29:30.599Z,95709.89
2019-06-20T11:31:56.828Z,95715.00
2019-06-20T11:34:23.253Z,95707.91
2019-06-20T11:36:49.500Z,95715.00
2019-06-20T11:39:15.744Z,95711.73
2019-06-20T11:41:41.983Z,95696.28
2019-06-20T11:44:08.164Z,95698.23
2019-06-20T11:46:35.420Z,95692.96
2019-06-20T11:49:03.724Z,95686.89
2019-06-20T11:51:30.065Z,95682.75
2019-06-20T11:53:56.385Z,95690.05
2019-06-20T11:56:22.696Z,95681.10
2019-06-20T11:58:48.975Z,95675.81
2019-06-20T12:01:15.369Z,95672.98
2019-06-20T12:03:42.530Z,95672.69
2019-06-20T12:06:08.755Z,95671.06
2019-06-20T12:08:34.960Z,95665.95
2019-06-20T12:11:01.162Z,95669.70
2019-06-20T12:13:27.375Z,95662.06
2019-06-20T12:15:53.484Z,95669.17
2019-06-20T12:18:19.690Z,95664.45
2019-06-20T12:20:46.814Z,95658.08
2019-06-20T12:23:13.076Z,95658.63
2019-06-20T12:25:40.886Z,95664.17
2019-06-20T12:28:07.482Z,95655.10
2019-06-20T12:30:33.581Z,95653.72
2019-06-20T12:32:59.782Z,95650.59
2019-06-20T12:35:26.015Z,95656.69
2019-06-20T12:37:52.314Z,95653.98
2019-06-20T12:40:19.035Z,95637.18
2019-06-20T12:42:46.643Z,95643.51
2019-06-20T12:45:14.091Z,95649.36
2019-06-20T12:47:41.785Z,95645.19
2019-06-20T12:50:08.704Z,95644.72
2019-06-20T12:52:36.003Z,95655.45
2019-06-20T12:55:03.948Z,95640.01
2019-06-20T12:57:30.153Z,95629.28
2019-06-20T12:59:56.617Z,95631.63
2019-06-20T13:02:23.180Z,95630.56
2019-06-20T13:04:50.603Z,95632.16
2019-06-20T13:07:16.965Z,95635.80
2019-06-20T13:09:44.013Z,95630.61
2019-06-20T13:12:10.259Z,95639.06
2019-06-20T13:14:36.362Z,95636.64
2019-06-20T13:17:02.784Z,95627.50
2019-06-20T13:19:28.911Z,95630.27
2019-06-20T13:21:55.128Z,95626.52
2019-06-20T13:24:21.288Z,95625.67
2019-06-20T13:26:48.881Z,95615.58
2019-06-20T13:29:15.631Z,95619.47
2019-06-20T13:32:00.521Z,95605.08
2019-06-20T13:34:09.899Z,95626.77
2019-06-20T13:36:36.171Z,95623.88
2019-06-20T13:39:05.627Z,95623.28
2019-06-20T13:41:32.287Z,95623.89
2019-06-20T13:43:58.530Z,95621.45
2019-06-20T13:46:24.684Z,95622.70
2019-06-20T13:48:50.900Z,95614.50
2019-06-20T13:51:17.561Z,95617.55
2019-06-20T13:53:46.267Z,95616.55
2019-06-20T13:56:12.995Z,95620.91
2019-06-20T13:58:40.693Z,95616.55
2019-06-20T14:01:08.366Z,95606.14
2019-06-20T14:03:35.138Z,95610.98
2019-06-20T14:06:01.886Z,95613.28
2019-06-20T14:08:28.316Z,95626.93
2019-06-20T14:10:58.804Z,95607.67
2019-06-20T14:13:25.321Z,95622.70
2019-06-20T14:15:51.546Z,95607.59
2019-06-20T14:18:17.813Z,95607.75
2019-06-20T14:20:44.841Z,95608.29
2019-06-20T14:23:11.176Z,95614.42
2019-06-20T14:25:37.436Z,95606.52
2019-06-20T14:28:03.814Z,95616.23
2019-06-20T14:30:30.189Z,95613.97
2019-06-20T14:32:56.754Z,95608.60
2019-06-20T14:35:23.271Z,95620.09
2019-06-20T14:37:51.563Z,95606.19
2019-06-20T14:40:17.785Z,95595.85
2019-06-20T14:42:44.552Z,95609.91
2019-06-20T14:45:12.569Z,95600.70
2019-06-20T14:47:38.864Z,95601.80
2019-06-20T14:50:07.325Z,95601.63
2019-06-20T14:52:33.542Z,95579.25
2019-06-20T14:54:59.661Z,95592.88
2019-06-20T14:57:27.056Z,95598.34
2019-06-20T14:59:54.405Z,95590.55
2019-06-20T15:02:20.667Z,95577.95
2019-06-20T15:04:47.847Z,95586.31
2019-06-20T15:07:14.286Z,95559.21
2019-06-20T15:09:40.460Z,95575.23
2019-06-20T15:12:06.608Z,95581.73
2019-06-20T15:14:32.773Z,95582.91
2019-06-20T15:16:59.098Z,95583.43
2019-06-20T15:19:25.594Z,95577.02
2019-06-20T15:21:52.143Z,95578.84
2019-06-20T15:24:18.353Z,95567.96
2019-06-20T15:26:45.859Z,95566.13
2019-06-20T15:29:12.831Z,95561.44
2019-06-20T15:31:39.052Z,95562.21
2019-06-20T15:34:05.791Z,95549.82
2019-06-20T15:36:32.175Z,95556.53
2019-06-20T15:38:58.391Z,95542.23
2019-06-20T15:41:28.719Z,95552.00
2019-06-20T15:44:02.909Z,95550.18
2019-06-20T15:46:30.620Z,95564.64
2019-06-20T15:48:59.838Z,95571.61
2019-06-20T15:51:25.170Z,95573.69
2019-06-20T15:53:51.852Z,95575.17
2019-06-20T15:56:18.127Z,95576.89
2019-06-20T15:58:44.418Z,95576.55
2019-06-20T16:01:18.900Z,95579.98
2019-06-20T16:03:50.583Z,95580.06
2019-06-20T16:06:19.786Z,95588.23
2019-06-20T16:08:46.465Z,95587.30
2019-06-20T16:11:13.149Z,95591.64
2019-06-20T16:13:39.345Z,95583.78
2019-06-20T16:16:05.802Z,95586.38
2019-06-20T16:18:32.095Z,95597.40
2019-06-20T16:20:59.566Z,95597.94
2019-06-20T16:23:26.041Z,95601.89
2019-06-20T16:25:54.084Z,95594.33
2019-06-20T16:28:20.520Z,95592.21
2019-06-20T16:30:47.975Z,95600.96
2019-06-20T16:33:25.138Z,95612.78
2019-06-20T16:35:51.280Z,95605.26
2019-06-20T16:38:23.119Z,95610.41
2019-06-20T16:40:49.922Z,95613.77
2019-06-20T16:43:16.351Z,95614.58
2019-06-20T16:45:43.013Z,95615.78
2019-06-20T16:48:09.475Z,95620.30
2019-06-20T16:50:38.859Z,95619.48
2019-06-20T16:53:05.347Z,95630.25
2019-06-20T16:55:35.930Z,95633.08
2019-06-20T16:58:04.559Z,95631.59
2019-06-20T17:00:31.292Z,95626.86
2019-06-20T17:02:57.653Z,95628.17
2019-06-20T17:05:24.281Z,95635.13
2019-06-20T17:07:52.697Z,95626.81
2019-06-20T17:10:30.267Z,95634.52
2019-06-20T17:12:58.111Z,95636.76
2019-06-20T17:15:28.740Z,95643.97
2019-06-20T17:18:00.559Z,95639.27
2019-06-20T17:20:29.636Z,95640.99
2019-06-20T17:22:56.949Z,95646.53
2019-06-20T17:25:23.294Z,95640.95
2019-06-20T17:27:49.602Z,95640.51
2019-06-20T17:30:18.004Z,95640.03
2019-06-20T17:32:44.315Z,95641.47
2019-06-20T17:35:10.776Z,95641.55
2019-06-20T17:37:37.179Z,95640.50
2019-06-20T17:40:07.980Z,95645.97
2019-06-20T17:42:34.344Z,95644.91
2019-06-20T17:45:00.497Z,95645.74
2019-06-20T17:47:27.553Z,95647.69
2019-06-20T17:49:53.860Z,95660.20
2019-06-20T17:52:20.222Z,95656.72
2019-06-20T17:54:46.505Z,95671.40
2019-06-20T17:57:12.722Z,95673.61
2019-06-20T17:59:41.017Z,95679.34
2019-06-20T18:02:07.942Z,95680.96
2019-06-20T18:04:34.177Z,95693.47
2019-06-20T18:07:00.432Z,95706.75
2019-06-20T18:09:29.372Z,95709.45
2019-06-20T18:11:55.933Z,95702.37
2019-06-20T18:14:22.234Z,95712.67
2019-06-20T18:16:48.387Z,95716.18
2019-06-20T18:19:14.740Z,95718.89
2019-06-20T18:21:41.123Z,95731.88
2019-06-20T18:24:07.329Z,95738.89
2019-06-20T18:26:33.781Z,95735.84
2019-06-20T18:28:59.930Z,95735.78
2019-06-20T18:31:26.092Z,95732.98
2019-06-20T18:33:52.331Z,95736.47
2019-06-20T18:36:18.484Z,95737.73
2019-06-20T18:38:46.265Z,95737.38
2019-06-20T18:41:12.531Z,95741.08
2019-06-20T18:43:38.672Z,95748.05
2019-06-20T18:46:05.316Z,95746.33
2019-06-20T18:48:31.852Z,95741.44
2019-06-20T18:50:58.126Z,95744.41
2019-06-20T18:53:24.401Z,95755.72
2019-06-20T18:55:50.553Z,95749.47
2019-06-20T18:58:16.784Z,95752.12
2019-06-20T19:00:42.994Z,95749.67
2019-06-20T19:03:09.198Z,95760.42
2019-06-20T19:05:36.367Z,95755.79
2019-06-20T19:08:03.316Z,95752.55
2019-06-20T19:10:33.343Z,95756.56
2019-06-20T19:12:57.675Z,95754.63
2019-06-20T19:15:24.306Z,95761.36
2019-06-20T19:17:52.414Z,95757.55
2019-06-20T19:20:19.379Z,95763.97
2019-06-20T19:22:45.620Z,95775.78
2019-06-20T19:25:12.230Z,95772.25
2019-06-20T19:27:46.280Z,95768.34
2019-06-20T19:30:08.855Z,95769.36
2019-06-20T19:32:35.289Z,95776.91
2019-06-20T19:35:03.100Z,95782.56
2019-06-20T19:37:29.322Z,95780.37
2019-06-20T19:39:55.694Z,95780.63
2019-06-20T19:42:24.105Z,95789.22
2019-06-20T19:44:50.494Z,95792.96
2019-06-20T19:47:17.383Z,95788.32
2019-06-20T19:49:43.702Z,95793.97
2019-06-20T19:52:11.843Z,95792.34
2019-06-20T19:54:38.326Z,95791.77
2019-06-20T19:57:04.733Z,95792.52
2019-06-20T19:59:30.931Z,95800.57
2019-06-20T20:01:57.194Z,95799.92
2019-06-20T20:04:23.471Z,95801.73
2019-06-20T20:06:49.853Z,95807.88
2019-06-20T20:09:16.191Z,95807.05
2019-06-20T20:11:43.454Z,95811.81
2019-06-20T20:14:09.833Z,95810.36
2019-06-20T20:16:35.954Z,95811.10
2019-06-20T20:19:02.651Z,95807.25
2019-06-20T20:21:29.241Z,95820.64
2019-06-20T20:23:55.928Z,95819.75
2019-06-20T20:26:23.159Z,95829.06
2019-06-20T20:28:49.457Z,95831.36
2019-06-20T20:31:20.190Z,95827.75
2019-06-20T20:33:46.505Z,95829.80
2019-06-20T20:36:24.578Z,95826.20
2019-06-20T20:38:40.869Z,95831.25
2019-06-20T20:41:07.133Z,95824.73
2019-06-20T20:43:33.613Z,95827.91
2019-06-20T20:46:00.932Z,95828.64
2019-06-20T20:48:27.250Z,95831.72
2019-06-20T20:50:53.505Z,95831.30
2019-06-20T20:53:19.782Z,95834.34
2019-06-20T20:55:46.031Z,95830.40
2019-06-20T20:58:12.235Z,95831.95
2019-06-20T21:00:45.086Z,95838.05
2019-06-20T21:03:11.251Z,95829.07
2019-06-20T21:05:50.620Z,95835.41
2019-06-20T21:08:05.675Z,95833.08
2019-06-20T21:10:31.843Z,95831.81
2019-06-20T21:12:58.017Z,95840.27
2019-06-20T21:15:24.257Z,95848.45
2019-06-20T21:17:50.416Z,95843.44
2019-06-20T21:20:17.827Z,95845.64
2019-06-20T21:22:43.939Z,95848.44
2019-06-20T21:25:10.443Z,95847.52
2019-06-20T21:27:36.566Z,95853.27
2019-06-20T21:30:06.323Z,95852.31
2019-06-20T21:32:32.641Z,95862.60
2019-06-20T21:34:58.929Z,95869.50
2019-06-20T21:37:25.242Z,95877.66
2019-06-20T21:39:51.445Z,95878.58
2019-06-20T21:42:17.750Z,95882.89
2019-06-20T21:44:44.038Z,95885.24
2019-06-20T21:47:11.309Z,95881.12
2019-06-20T21:49:37.461Z,95892.93
2019-06-20T21:52:03.845Z,95888.62
2019-06-20T21:54:30.227Z,95896.30
2019-06-20T21:56:56.388Z,95894.68
2019-06-20T21:59:22.536Z,95895.14
2019-06-20T22:01:48.808Z,95885.88
2019-06-20T22:04:15.148Z,95896.05
2019-06-20T22:06:41.426Z,95889.26
2019-06-20T22:09:07.666Z,95887.86
2019-06-20T22:11:34.820Z,95888.55
2019-06-20T22:14:00.996Z,95885.27
2019-06-20T22:16:27.137Z,95889.42
2019-06-20T22:18:53.273Z,95884.75
2019-06-20T22:21:19.431Z,95889.17
2019-06-20T22:23:46.669Z,95890.45
2019-06-20T22:26:12.832Z,95892.77
2019-06-20T22:28:39.143Z,95908.48
2019-06-20T22:31:05.445Z,95904.02
2019-06-20T22:33:31.883Z,95911.35
2019-06-20T22:35:57.970Z,95910.97
2019-06-20T22:38:24.197Z,95907.34
2019-06-20T22:40:50.402Z,95917.91
2019-06-20T22:43:16.741Z,95920.24
2019-06-20T22:45:43.008Z,95915.77
2019-06-20T22:48:09.398Z,95917.02
2019-06-20T22:50:35.651Z,95921.81
2019-06-20T22:53:02.003Z,95922.86
2019-06-20T22:55:28.150Z,95917.34
2019-06-20T22:57:54.308Z,95910.92
2019-06-20T23:00:21.036Z,95913.03
2019-06-20T23:02:47.359Z,95919.41
2019-06-20T23:05:13.675Z,95918.01
2019-06-20T23:07:40.029Z,95920.08
2019-06-20T23:10:10.851Z,95929.40
2019-06-20T23:12:35.682Z,95933.58
2019-06-20T23:15:03.530Z,95919.78
2019-06-20T23:17:29.683Z,95924.54
2019-06-20T23:19:55.828Z,95918.80
2019-06-20T23:22:21.984Z,95927.27
2019-06-20T23:24:48.252Z,95920.70
2019-06-20T23:27:14.411Z,95921.14
2019-06-20T23:29:40.569Z,95921.00
2019-06-20T23:32:06.719Z,95924.92
2019-06-20T23:34:32.873Z,95920.22
2019-06-20T23:37:12.194Z,95927.69
2019-06-20T23:39:28.451Z,95928.92
2019-06-20T23:41:54.869Z,95941.95
2019-06-20T23:44:20.974Z,95937.03
2019-06-20T23:46:47.209Z,95944.68
2019-06-20T23:49:13.343Z,95956.66
2019-06-20T23:51:44.472Z,95959.34
2019-06-20T23:54:10.586Z,95950.65
2019-06-20T23:56:36.833Z,95947.97
2019-06-20T23:59:03.312Z,95944.09
